Etusivu
METAR-TAF:

METAR-TAF

Lentoasemat :

Belgradin Nikola Teslan lentoasema

Belgrad, Serbia

Leveyspiiri: 44-49N, Pituuspiiri: 020-17E, korkeus merenpinnasta: 96 m

Tämänhetkinen sää

Tämä raportti tehtiin 19 minuuttia sitten, kello 13.00 UTC
Tuuli 20 kn idästä/kaakosta
Lämpötila 18°C
Kosteus 59%
Ilmanpaine 1005 hPa
Näkyvyys 10 km tai enemmän
ei pilviä alle 1500 m:ssä eikä cumulonimbus-pilviä

METAR: LYBE 121300Z 12020KT CAVOK 18/10 Q1005 NOSIG

Aika: 14:19 (13:19 UTC)

Sääennuste

Tämä raportti tehtiin 2 tuntia ja 19 minuuttia sitten, kello 11.00 UTC
Ennuste voimassa 12. päivästä klo 12 UTC - 13. päivään klo 12 UTC
Tuuli 15 kn kaakosta
Näkyvyys 10 km tai enemmän
ei pilviä alle 1500 m:ssä eikä cumulonimbus-pilviä
Ajoittain
12. päivästä klo 12 UTC - 12. päivään klo 18 UTC
Tuuli 20 kn kaakosta puuskistuen 35 kn:hen

TAF: LYBE 121100Z 1212/1312 13015KT CAVOK TX19/1312Z TN13/1305Z TEMPO 1212/1218 13020G35KT

Säähavainnot ja -ennusteet yli 4000 lentoasemalta (METAR- ja TAF-raportit).

Käytössä olevat sääasemat on merkitty karttaan keltaisilla ja punaisilla pisteillä.

Aseta hiiri pisteen päälle nähdäksesi sääaseman nimen.

Klikkaa sitten nähdäksesi säähavainnot ja -ennusteet.

Kartan vaihtaminen: klikkaa mustalla rastilla varustettuja vihreitä pisteitä, niin voit zoomata sisään; viivalla varustettua vihreää pistettä, niin voit zoomata ulos tai vihreitä nuolia, niin pääset viereisille kartoille.


METAR-TAF: